createdAt,value
2022-12-03T00:03:05.924Z,19.88
2022-12-03T00:05:33.066Z,19.17
2022-12-03T00:08:00.110Z,18.00
2022-12-03T00:10:27.057Z,18.90
2022-12-03T00:12:53.987Z,18.35
2022-12-03T00:15:20.978Z,18.13
2022-12-03T00:17:47.887Z,17.40
2022-12-03T00:20:23.297Z,16.65
2022-12-03T00:22:50.723Z,17.77
2022-12-03T00:25:17.944Z,16.67
2022-12-03T00:27:44.855Z,16.50
2022-12-03T00:30:12.405Z,16.38
2022-12-03T00:32:39.476Z,15.88
2022-12-03T00:37:35.361Z,15.27
2022-12-03T00:40:04.112Z,15.32
2022-12-03T00:42:31.053Z,15.43
2022-12-03T00:44:58.063Z,14.85
2022-12-03T00:47:25.012Z,14.57
2022-12-03T00:49:51.942Z,13.90
2022-12-03T00:52:18.881Z,13.50
2022-12-03T00:54:45.791Z,14.32
2022-12-03T00:59:39.805Z,14.18
2022-12-03T01:02:06.718Z,13.30
2022-12-03T01:04:34.052Z,14.35
2022-12-03T01:07:01.149Z,14.13
2022-12-03T01:09:28.039Z,14.02
2022-12-03T01:11:54.903Z,13.63
2022-12-03T01:14:21.933Z,12.38
2022-12-03T01:16:49.235Z,13.32
2022-12-03T01:19:17.051Z,13.05
2022-12-03T01:21:45.164Z,13.07
2022-12-03T01:24:12.484Z,12.75
2022-12-03T01:26:39.378Z,12.40
2022-12-03T01:29:06.698Z,12.27
2022-12-03T01:31:52.225Z,12.65
2022-12-03T01:34:19.161Z,12.55
2022-12-03T01:36:46.113Z,12.25
2022-12-03T01:39:12.986Z,12.32
2022-12-03T01:41:40.991Z,11.93
2022-12-03T01:44:33.681Z,11.65
2022-12-03T01:47:03.514Z,11.18
2022-12-03T01:49:41.355Z,11.27
2022-12-03T01:52:16.643Z,11.82
2022-12-03T01:54:48.673Z,11.43
2022-12-03T01:57:22.354Z,11.02
2022-12-03T01:59:49.919Z,11.05
2022-12-03T02:02:31.116Z,11.60
2022-12-03T02:04:58.600Z,11.48
2022-12-03T02:07:33.747Z,10.60
2022-12-03T02:10:02.868Z,10.52
2022-12-03T02:12:41.582Z,9.88
2022-12-03T02:15:09.857Z,10.40
2022-12-03T02:17:37.100Z,10.73
2022-12-03T02:20:06.389Z,10.23
2022-12-03T02:22:56.943Z,10.55
2022-12-03T02:25:32.054Z,9.73
2022-12-03T02:27:59.576Z,9.93
2022-12-03T02:30:28.084Z,10.32
2022-12-03T02:32:55.494Z,10.05
2022-12-03T02:35:32.310Z,9.73
2022-12-03T02:40:54.290Z,9.65
2022-12-03T02:43:22.176Z,9.07
2022-12-03T02:45:52.426Z,9.18
2022-12-03T02:48:38.802Z,9.02
2022-12-03T02:51:10.133Z,9.90
2022-12-03T02:53:44.509Z,9.40
2022-12-03T02:56:14.492Z,8.85
2022-12-03T02:58:42.415Z,8.40
2022-12-03T03:01:09.694Z,8.73
2022-12-03T03:03:37.791Z,8.60
2022-12-03T03:06:05.513Z,9.07
2022-12-03T03:08:32.472Z,8.52
2022-12-03T03:11:00.873Z,7.93
2022-12-03T03:13:30.270Z,8.80
2022-12-03T03:15:57.314Z,8.80
2022-12-03T03:18:24.325Z,8.30
2022-12-03T03:20:51.355Z,8.23
2022-12-03T03:23:20.086Z,8.27
2022-12-03T03:26:13.805Z,8.03
2022-12-03T03:28:46.883Z,7.60
2022-12-03T03:31:16.236Z,8.25
2022-12-03T03:33:44.930Z,7.97
2022-12-03T03:36:13.003Z,8.13
2022-12-03T03:38:40.012Z,8.07
2022-12-03T03:41:08.602Z,7.22
2022-12-03T03:43:37.657Z,7.15
2022-12-03T03:46:05.889Z,8.10
2022-12-03T03:48:34.602Z,7.70
2022-12-03T03:51:03.757Z,7.90
2022-12-03T03:53:30.917Z,7.10
2022-12-03T03:55:57.867Z,6.72
2022-12-03T03:58:24.735Z,7.35
2022-12-03T04:00:51.962Z,7.53
2022-12-03T04:03:18.882Z,7.45
2022-12-03T04:05:46.718Z,7.25
2022-12-03T04:08:13.660Z,6.68
2022-12-03T04:10:59.156Z,7.28
2022-12-03T04:13:25.999Z,7.35
2022-12-03T04:15:52.886Z,7.00
2022-12-03T04:18:49.019Z,7.45
2022-12-03T04:21:39.571Z,7.40
2022-12-03T04:24:07.965Z,6.60
2022-12-03T04:26:53.399Z,6.63
2022-12-03T04:29:20.800Z,6.63
2022-12-03T04:32:06.942Z,6.55
2022-12-03T04:34:52.727Z,6.72
2022-12-03T04:37:20.098Z,6.82
2022-12-03T04:39:46.947Z,6.72
2022-12-03T04:42:13.952Z,6.00
2022-12-03T04:44:40.873Z,6.47
2022-12-03T04:47:19.280Z,6.25
2022-12-03T04:49:48.553Z,6.15
2022-12-03T04:52:16.974Z,6.10
2022-12-03T04:54:43.968Z,6.60
2022-12-03T04:57:11.843Z,6.25
2022-12-03T04:59:39.260Z,6.18
2022-12-03T05:02:07.023Z,6.22
2022-12-03T05:04:34.289Z,6.28
2022-12-03T05:07:01.341Z,6.03
2022-12-03T05:09:28.211Z,6.20
2022-12-03T05:11:55.114Z,5.95
2022-12-03T05:14:22.029Z,5.93
2022-12-03T05:16:48.940Z,6.20
2022-12-03T05:19:15.880Z,5.90
2022-12-03T05:21:42.748Z,5.90
2022-12-03T05:24:09.639Z,5.75
2022-12-03T05:26:36.564Z,5.78
2022-12-03T05:29:03.641Z,6.00
2022-12-03T05:31:30.573Z,5.57
2022-12-03T05:33:57.507Z,5.82
2022-12-03T05:36:25.643Z,5.28
2022-12-03T05:38:52.568Z,5.60
2022-12-03T05:41:38.261Z,4.97
2022-12-03T05:44:05.202Z,5.13
2022-12-03T05:46:33.044Z,5.13
2022-12-03T05:49:00.093Z,4.82
2022-12-03T05:51:27.187Z,5.15
2022-12-03T05:53:54.090Z,4.55
2022-12-03T05:56:21.017Z,4.35
2022-12-03T05:58:47.897Z,4.63
2022-12-03T06:01:14.791Z,4.68
2022-12-03T06:03:41.778Z,4.82
2022-12-03T06:06:08.788Z,4.40
2022-12-03T06:08:35.633Z,4.75
2022-12-03T06:11:02.584Z,4.10
2022-12-03T06:13:29.462Z,4.50
2022-12-03T06:15:56.401Z,3.85
2022-12-03T06:18:23.391Z,4.10
2022-12-03T06:20:50.224Z,3.92
2022-12-03T06:23:17.102Z,3.85
2022-12-03T06:25:44.030Z,4.15
2022-12-03T06:28:10.925Z,4.38
2022-12-03T06:30:37.860Z,4.22
2022-12-03T06:33:04.738Z,3.60
2022-12-03T06:35:31.707Z,4.07
2022-12-03T06:37:58.638Z,4.20
2022-12-03T06:40:26.003Z,3.92
2022-12-03T06:42:53.175Z,4.03
2022-12-03T06:45:20.073Z,3.92
2022-12-03T06:47:46.943Z,4.30
2022-12-03T06:50:14.036Z,3.80
2022-12-03T06:52:40.999Z,3.53
2022-12-03T06:55:08.546Z,4.28
2022-12-03T06:57:35.461Z,3.63
2022-12-03T07:00:03.513Z,3.55
2022-12-03T07:02:30.519Z,3.55
2022-12-03T07:04:57.945Z,3.40
2022-12-03T07:07:25.235Z,3.47
2022-12-03T07:09:52.177Z,3.50
2022-12-03T07:12:19.065Z,3.63
2022-12-03T07:14:46.035Z,3.58
2022-12-03T07:17:12.874Z,3.55
2022-12-03T07:19:39.940Z,3.53
2022-12-03T07:22:06.994Z,3.83
2022-12-03T07:27:01.075Z,3.30
2022-12-03T07:29:28.003Z,3.70
2022-12-03T07:31:54.898Z,3.33
2022-12-03T07:36:49.064Z,3.45
2022-12-03T07:39:16.014Z,3.28
2022-12-03T07:41:42.887Z,3.65
2022-12-03T07:44:14.282Z,5.80
2022-12-03T07:46:41.813Z,19.63
2022-12-03T07:49:08.843Z,23.50
2022-12-03T07:51:35.704Z,21.02
2022-12-03T07:54:02.530Z,19.65
2022-12-03T07:56:29.399Z,16.63
2022-12-03T07:58:56.304Z,16.80
2022-12-03T08:01:23.303Z,14.73
2022-12-03T08:03:50.177Z,22.92
2022-12-03T08:06:17.118Z,29.45
2022-12-03T08:08:44.008Z,27.25
2022-12-03T08:11:16.762Z,26.10
2022-12-03T08:13:43.869Z,24.23
2022-12-03T08:16:19.648Z,23.13
2022-12-03T08:18:47.415Z,20.02
2022-12-03T08:21:16.194Z,18.73
2022-12-03T08:23:43.263Z,26.27
2022-12-03T08:26:24.731Z,29.00
2022-12-03T08:28:52.922Z,27.17
2022-12-03T08:31:32.449Z,24.77
2022-12-03T08:34:12.521Z,24.15
2022-12-03T08:36:39.438Z,21.13
2022-12-03T08:39:30.374Z,20.10
2022-12-03T08:42:39.176Z,18.75
2022-12-03T08:45:28.136Z,17.80
2022-12-03T08:47:58.944Z,16.38
2022-12-03T08:50:46.333Z,15.80
2022-12-03T08:53:29.889Z,15.35
2022-12-03T08:56:02.488Z,18.17
2022-12-03T08:58:39.037Z,30.85
2022-12-03T09:01:09.004Z,27.13
2022-12-03T09:03:36.019Z,25.88
2022-12-03T09:06:02.912Z,23.98
2022-12-03T09:08:29.808Z,22.65
2022-12-03T09:10:56.850Z,20.73
2022-12-03T09:13:23.734Z,19.00
2022-12-03T09:15:50.594Z,19.20
2022-12-03T09:18:17.463Z,18.42
2022-12-03T09:20:44.572Z,17.85
2022-12-03T09:23:11.474Z,16.38
2022-12-03T09:25:38.365Z,15.65
2022-12-03T09:28:05.316Z,19.90
2022-12-03T09:33:00.202Z,35.15
2022-12-03T09:35:27.784Z,31.88
2022-12-03T09:37:55.393Z,30.25
2022-12-03T09:40:22.915Z,27.77
2022-12-03T09:42:50.900Z,26.70
2022-12-03T09:45:18.146Z,25.13
2022-12-03T09:47:48.144Z,23.40
2022-12-03T09:50:20.636Z,21.98
2022-12-03T09:52:49.760Z,20.98
2022-12-03T09:55:21.682Z,20.50
2022-12-03T09:57:48.812Z,19.88
2022-12-03T10:00:21.821Z,18.55
2022-12-03T10:02:50.041Z,17.50
2022-12-03T10:05:19.739Z,16.00
2022-12-03T10:10:19.425Z,15.07
2022-12-03T10:12:46.848Z,20.02
2022-12-03T10:15:16.013Z,22.30
2022-12-03T10:17:43.004Z,22.42
2022-12-03T10:20:13.737Z,22.27
2022-12-03T10:22:40.717Z,20.23
2022-12-03T10:25:13.118Z,19.20
2022-12-03T10:27:40.763Z,17.85
2022-12-03T10:30:23.437Z,17.20
2022-12-03T10:32:51.490Z,15.73
2022-12-03T10:35:24.309Z,15.38
2022-12-03T10:38:08.529Z,14.90
2022-12-03T10:40:37.688Z,14.65
2022-12-03T10:43:19.913Z,14.15
2022-12-03T10:46:07.790Z,13.10
2022-12-03T10:48:34.695Z,13.13
2022-12-03T10:51:13.629Z,15.40
2022-12-03T10:53:40.963Z,19.33
2022-12-03T10:56:10.674Z,20.98
2022-12-03T11:01:25.468Z,18.50
2022-12-03T11:03:53.245Z,16.77
2022-12-03T11:06:22.192Z,15.80
2022-12-03T11:08:57.633Z,14.32
2022-12-03T11:11:28.270Z,14.07
2022-12-03T11:14:03.031Z,14.67
2022-12-03T11:16:42.353Z,13.50
2022-12-03T11:19:17.549Z,13.23
2022-12-03T11:22:06.268Z,12.65
2022-12-03T11:24:35.063Z,12.60
2022-12-03T11:27:01.906Z,12.00
2022-12-03T11:29:54.684Z,11.48
2022-12-03T11:32:40.483Z,11.25
2022-12-03T11:35:25.429Z,11.25
2022-12-03T11:37:52.782Z,10.40
2022-12-03T11:40:19.697Z,10.32
2022-12-03T11:42:48.166Z,11.20
2022-12-03T11:45:34.012Z,9.88
2022-12-03T11:48:16.652Z,9.73
2022-12-03T11:50:50.171Z,9.85
2022-12-03T11:53:23.828Z,10.20
2022-12-03T11:56:06.559Z,9.82
2022-12-03T11:58:38.411Z,10.00
2022-12-03T12:01:06.951Z,9.55
2022-12-03T12:03:36.359Z,9.10
2022-12-03T12:06:11.589Z,9.18
2022-12-03T12:08:40.802Z,9.43
2022-12-03T12:11:17.855Z,9.45
2022-12-03T12:13:44.707Z,8.23
2022-12-03T12:16:11.947Z,8.45
2022-12-03T12:18:45.789Z,9.13
2022-12-03T12:21:44.679Z,8.80
2022-12-03T12:24:33.731Z,8.48
2022-12-03T12:27:06.059Z,8.50
2022-12-03T12:29:33.585Z,8.00
2022-12-03T12:32:09.385Z,8.20
2022-12-03T12:34:50.492Z,7.93
2022-12-03T12:37:22.683Z,8.25
2022-12-03T12:39:53.491Z,7.80
2022-12-03T12:42:37.945Z,8.25
2022-12-03T12:45:07.818Z,7.78
2022-12-03T12:47:37.845Z,7.65
2022-12-03T12:50:11.799Z,7.93
2022-12-03T12:53:09.127Z,11.50
2022-12-03T12:55:36.035Z,19.20
2022-12-03T12:58:08.629Z,26.58
2022-12-03T13:00:35.583Z,36.88
2022-12-03T13:03:04.528Z,45.33
2022-12-03T13:05:51.164Z,51.70
2022-12-03T13:08:32.260Z,55.33
2022-12-03T13:11:00.330Z,59.60
2022-12-03T13:13:31.568Z,63.60
2022-12-03T13:16:08.242Z,63.00
2022-12-03T13:18:40.259Z,62.80
2022-12-03T13:23:49.718Z,65.40
2022-12-03T13:26:34.675Z,62.17
2022-12-03T13:29:16.517Z,63.77
2022-12-03T13:31:58.221Z,63.38
2022-12-03T13:34:32.739Z,62.05
2022-12-03T13:37:01.399Z,59.17
2022-12-03T13:39:35.071Z,58.90
2022-12-03T13:42:39.099Z,58.75
2022-12-03T13:45:15.369Z,54.72
2022-12-03T13:47:42.239Z,55.53
2022-12-03T13:50:24.549Z,54.10
2022-12-03T13:52:52.992Z,53.05
2022-12-03T13:55:31.290Z,52.45
2022-12-03T13:57:58.755Z,52.20
2022-12-03T14:00:25.647Z,51.65
2022-12-03T14:02:52.619Z,48.88
2022-12-03T14:05:19.657Z,49.60
2022-12-03T14:07:46.573Z,50.15
2022-12-03T14:10:13.602Z,47.50
2022-12-03T14:12:40.643Z,45.85
2022-12-03T14:15:09.137Z,44.95
2022-12-03T14:17:36.022Z,45.28
2022-12-03T14:20:03.874Z,44.95
2022-12-03T14:22:30.947Z,45.83
2022-12-03T14:24:58.334Z,50.50
2022-12-03T14:27:25.497Z,52.45
2022-12-03T14:29:53.056Z,50.78
2022-12-03T14:32:20.146Z,50.20
2022-12-03T14:34:47.013Z,47.45
2022-12-03T14:37:13.948Z,46.58
2022-12-03T14:39:40.933Z,46.33
2022-12-03T14:42:13.775Z,44.65
2022-12-03T14:44:41.487Z,43.95
2022-12-03T14:47:08.603Z,42.05
2022-12-03T14:49:35.676Z,40.30
2022-12-03T14:54:30.168Z,38.60
2022-12-03T14:56:57.139Z,37.20
2022-12-03T14:59:27.637Z,37.42
2022-12-03T15:01:55.383Z,35.58
2022-12-03T15:04:22.548Z,35.90
2022-12-03T15:06:49.593Z,32.65
2022-12-03T15:09:16.527Z,30.50
2022-12-03T15:11:46.364Z,33.25
2022-12-03T15:14:13.858Z,30.25
2022-12-03T15:16:40.786Z,32.28
2022-12-03T15:19:07.700Z,30.48
2022-12-03T15:21:35.142Z,29.80
2022-12-03T15:24:02.797Z,28.58
2022-12-03T15:26:30.098Z,28.23
2022-12-03T15:28:56.967Z,28.25
2022-12-03T15:31:23.930Z,27.45
2022-12-03T15:33:50.841Z,26.27
2022-12-03T15:36:17.814Z,25.98
2022-12-03T15:38:44.656Z,26.42
2022-12-03T15:41:21.467Z,25.75
2022-12-03T15:43:49.087Z,24.80
2022-12-03T15:46:16.466Z,24.80
2022-12-03T15:48:43.405Z,23.33
2022-12-03T15:51:10.379Z,23.90
2022-12-03T15:53:37.298Z,24.33
2022-12-03T15:56:04.416Z,22.08
2022-12-03T15:58:31.284Z,25.02
2022-12-03T16:00:58.267Z,22.20
2022-12-03T16:03:25.226Z,22.58
2022-12-03T16:05:52.186Z,22.38
2022-12-03T16:08:19.189Z,22.92
2022-12-03T16:10:46.136Z,22.20
2022-12-03T16:13:13.124Z,22.15
2022-12-03T16:18:07.180Z,20.70
2022-12-03T16:20:34.188Z,20.33
2022-12-03T16:23:01.049Z,19.23
2022-12-03T16:25:27.902Z,20.15
2022-12-03T16:27:54.804Z,20.25
2022-12-03T16:30:21.829Z,19.88
2022-12-03T16:32:48.861Z,19.25
2022-12-03T16:35:15.777Z,19.00
2022-12-03T16:37:42.739Z,18.75
2022-12-03T16:40:10.011Z,19.65
2022-12-03T16:42:37.389Z,18.35
2022-12-03T16:45:04.635Z,18.48
2022-12-03T16:47:34.311Z,17.10
2022-12-03T16:50:09.877Z,18.65
2022-12-03T16:52:54.850Z,16.95
2022-12-03T16:55:21.746Z,18.83
2022-12-03T16:57:48.658Z,18.83
2022-12-03T17:00:16.334Z,18.63
2022-12-03T17:02:43.311Z,18.27
2022-12-03T17:05:10.241Z,18.25
2022-12-03T17:07:37.243Z,17.58
2022-12-03T17:10:05.036Z,16.90
2022-12-03T17:12:54.108Z,17.58
2022-12-03T17:15:18.732Z,16.25
2022-12-03T17:17:45.609Z,17.35
2022-12-03T17:20:14.637Z,16.10
2022-12-03T17:22:41.944Z,15.68
2022-12-03T17:25:09.596Z,15.30
2022-12-03T17:27:40.825Z,15.90
2022-12-03T17:30:12.064Z,15.60
2022-12-03T17:32:38.922Z,14.88
2022-12-03T17:35:06.230Z,14.75
2022-12-03T17:37:33.131Z,15.38
2022-12-03T17:40:00.090Z,14.55
2022-12-03T17:42:27.125Z,14.90
2022-12-03T17:44:54.006Z,13.90
2022-12-03T17:47:20.898Z,14.23
2022-12-03T17:49:47.818Z,21.02
2022-12-03T17:52:14.706Z,17.52
2022-12-03T17:55:02.346Z,19.63
2022-12-03T17:57:28.558Z,21.13
2022-12-03T17:59:55.846Z,24.48
2022-12-03T18:02:22.945Z,27.52
2022-12-03T18:04:49.856Z,29.83
2022-12-03T18:07:16.714Z,29.92
2022-12-03T18:09:43.676Z,32.50
2022-12-03T18:12:10.632Z,34.53
2022-12-03T18:14:37.485Z,34.10
2022-12-03T18:17:04.450Z,35.55
2022-12-03T18:19:31.331Z,35.03
2022-12-03T18:21:58.318Z,34.45
2022-12-03T18:24:25.573Z,33.70
2022-12-03T18:26:52.457Z,33.50
2022-12-03T18:29:19.323Z,33.08
2022-12-03T18:31:46.325Z,32.50
2022-12-03T18:34:13.240Z,32.65
2022-12-03T18:36:40.188Z,31.95
2022-12-03T18:39:09.349Z,30.05
2022-12-03T18:41:36.842Z,30.42
2022-12-03T18:44:06.839Z,27.38
2022-12-03T18:46:53.048Z,31.67
2022-12-03T18:49:20.637Z,35.47
2022-12-03T18:51:48.430Z,32.45
2022-12-03T18:54:15.793Z,34.17
2022-12-03T18:56:42.777Z,31.65
2022-12-03T18:59:09.827Z,28.13
2022-12-03T19:01:36.758Z,25.70
2022-12-03T19:04:03.818Z,29.02
2022-12-03T19:06:30.777Z,26.20
2022-12-03T19:08:57.982Z,27.10
2022-12-03T19:11:24.963Z,23.67
2022-12-03T19:13:52.146Z,24.42
2022-12-03T19:16:19.396Z,23.17
2022-12-03T19:18:46.303Z,23.83
2022-12-03T19:21:15.563Z,23.58
2022-12-03T19:24:04.254Z,25.63
2022-12-03T19:26:29.845Z,31.33
2022-12-03T19:28:56.738Z,31.95
2022-12-03T19:31:23.642Z,33.03
2022-12-03T19:33:51.814Z,30.10
2022-12-03T19:36:24.589Z,30.35
2022-12-03T19:38:56.948Z,28.83
2022-12-03T19:41:26.809Z,24.60
2022-12-03T19:43:55.050Z,24.88
2022-12-03T19:46:23.527Z,25.67
2022-12-03T19:48:50.577Z,23.52
2022-12-03T19:51:33.439Z,21.60
2022-12-03T19:54:01.585Z,21.45
2022-12-03T19:56:30.522Z,20.40
2022-12-03T19:58:57.779Z,19.13
2022-12-03T20:01:32.197Z,21.20
2022-12-03T20:04:00.281Z,20.25
2022-12-03T20:06:29.671Z,19.27
2022-12-03T20:09:05.595Z,18.45
2022-12-03T20:11:34.017Z,18.48
2022-12-03T20:14:03.323Z,31.20
2022-12-03T20:16:30.428Z,31.80
2022-12-03T20:18:59.623Z,31.35
2022-12-03T20:21:27.112Z,30.55
2022-12-03T20:23:53.993Z,29.83
2022-12-03T20:26:21.816Z,27.42
2022-12-03T20:28:49.028Z,25.55
2022-12-03T20:31:18.062Z,25.65
2022-12-03T20:33:47.041Z,24.45
2022-12-03T20:36:16.270Z,22.60
2022-12-03T20:38:43.707Z,22.83
2022-12-03T20:41:12.910Z,20.70
2022-12-03T20:43:39.775Z,20.40
2022-12-03T20:46:15.276Z,19.42
2022-12-03T20:48:43.450Z,18.92
2022-12-03T20:51:12.818Z,18.50
2022-12-03T20:53:39.936Z,18.52
2022-12-03T20:56:07.946Z,18.83
2022-12-03T20:58:35.408Z,18.52
2022-12-03T21:01:16.019Z,17.67
2022-12-03T21:03:43.960Z,18.70
2022-12-03T21:06:11.434Z,17.55
2022-12-03T21:08:42.602Z,17.27
2022-12-03T21:11:18.577Z,23.35
2022-12-03T21:13:46.597Z,31.83
2022-12-03T21:16:16.143Z,34.30
2022-12-03T21:21:11.755Z,31.60
2022-12-03T21:23:38.649Z,29.47
2022-12-03T21:26:16.492Z,27.50
2022-12-03T21:28:45.049Z,26.27
2022-12-03T21:33:43.630Z,24.45
2022-12-03T21:36:11.719Z,22.15
2022-12-03T21:38:38.661Z,22.30
2022-12-03T21:43:34.017Z,21.50
2022-12-03T21:46:05.279Z,21.25
2022-12-03T21:48:52.260Z,20.02
2022-12-03T21:51:19.766Z,18.85
2022-12-03T21:53:47.861Z,18.73
2022-12-03T21:56:19.299Z,18.48
2022-12-03T21:58:46.688Z,19.17
2022-12-03T22:01:31.884Z,21.75
2022-12-03T22:03:58.864Z,30.92
2022-12-03T22:06:25.748Z,35.50
2022-12-03T22:08:52.592Z,32.30
2022-12-03T22:11:22.767Z,30.92
2022-12-03T22:13:49.934Z,28.73
2022-12-03T22:16:20.084Z,27.02
2022-12-03T22:18:47.500Z,25.85
2022-12-03T22:21:19.826Z,24.52
2022-12-03T22:23:46.739Z,24.02
2022-12-03T22:26:16.050Z,22.35
2022-12-03T22:28:44.446Z,22.20
2022-12-03T22:31:11.923Z,20.63
2022-12-03T22:33:39.288Z,20.33
2022-12-03T22:36:08.398Z,18.25
2022-12-03T22:38:35.776Z,20.02
2022-12-03T22:41:07.455Z,19.55
2022-12-03T22:43:37.140Z,26.52
2022-12-03T22:46:05.045Z,38.28
2022-12-03T22:48:34.932Z,37.28
2022-12-03T22:51:02.042Z,36.22
2022-12-03T22:53:28.954Z,35.67
2022-12-03T22:55:57.530Z,34.08
2022-12-03T22:58:25.323Z,31.25
2022-12-03T23:00:52.630Z,31.02
2022-12-03T23:03:19.841Z,29.90
2022-12-03T23:05:46.847Z,28.05
2022-12-03T23:08:21.616Z,25.88
2022-12-03T23:10:50.820Z,25.05
2022-12-03T23:15:48.231Z,24.17
2022-12-03T23:18:15.187Z,24.75
2022-12-03T23:20:44.429Z,24.40
2022-12-03T23:23:11.456Z,22.25
2022-12-03T23:25:38.476Z,23.98
2022-12-03T23:28:05.793Z,21.67
2022-12-03T23:30:36.397Z,21.10
2022-12-03T23:33:04.451Z,21.08
2022-12-03T23:35:31.553Z,21.13
2022-12-03T23:37:58.477Z,20.88
2022-12-03T23:40:25.403Z,19.70
2022-12-03T23:42:52.284Z,20.35
2022-12-03T23:45:19.140Z,19.90
2022-12-03T23:47:46.039Z,18.90
2022-12-03T23:50:12.975Z,18.95
2022-12-03T23:52:39.915Z,18.48
2022-12-03T23:55:10.613Z,18.92
2022-12-03T23:57:37.802Z,17.77
